Time;durP1;ratioP1;P1;durP2;ratioP2;P2;SDS_P1;SDS_P2;PMS_P1;PMS_P2;Temp;Humidity;BMP_temperature;BMP_pressure;BME280_temperature;BME280_humidity;BME280_pressure;Samples;Min_cycle;Max_cycle;Signal;HPM_P1;HPM_P2
2022/12/14 00:02:22;;;;;;;8.83;7.63;;;-4.80;99.90;;;;;;5156250;28;20034;-59
2022/12/14 00:04:57;;;;;;;17.17;8.90;;;-4.80;99.90;;;;;;5127835;28;20057;-60
2022/12/14 00:07:34;;;;;;;14.43;8.23;;;-4.80;99.90;;;;;;5141100;28;20361;-59
2022/12/14 00:10:06;;;;;;;15.77;8.87;;;-4.70;99.90;;;;;;5166500;28;20038;-59
2022/12/14 00:12:37;;;;;;;12.30;8.63;;;-4.60;99.90;;;;;;5174454;28;20042;-59
2022/12/14 00:15:12;;;;;;;13.60;7.83;;;-4.60;99.90;;;;;;5173785;28;20050;-60
2022/12/14 00:17:43;;;;;;;10.67;7.97;;;-4.60;99.90;;;;;;5141867;28;20026;-60
2022/12/14 00:20:15;;;;;;;13.93;8.60;;;-4.50;99.90;;;;;;5158307;28;20094;-60
2022/12/14 00:22:54;;;;;;;12.47;7.67;;;-4.60;99.90;;;;;;5175147;28;20038;-60
2022/12/14 00:25:31;;;;;;;17.30;9.33;;;-4.60;99.90;;;;;;5158764;28;20247;-60
2022/12/14 00:28:13;;;;;;;13.87;8.17;;;-4.60;99.90;;;;;;5173193;28;20038;-59
2022/12/14 00:30:44;;;;;;;10.27;7.03;;;-4.70;99.90;;;;;;5158407;28;20145;-59
2022/12/14 00:33:27;;;;;;;13.93;7.73;;;-4.70;99.90;;;;;;5157336;28;20046;-61
2022/12/14 00:36:02;;;;;;;20.63;9.17;;;-4.70;99.90;;;;;;5159671;28;20357;-60
2022/12/14 00:38:39;;;;;;;7.90;5.93;;;-4.70;99.90;;;;;;5158082;28;20125;-59
2022/12/14 00:41:13;;;;;;;12.73;7.83;;;-4.60;99.90;;;;;;5174674;28;20114;-60
2022/12/14 00:43:50;;;;;;;12.95;6.85;;;-4.60;99.90;;;;;;5173346;28;20034;-60
2022/12/14 00:46:28;;;;;;;16.23;9.27;;;-4.50;99.90;;;;;;5141778;28;20469;-60
2022/12/14 00:49:00;;;;;;;13.03;8.20;;;-4.40;99.90;;;;;;5172575;28;20048;-60
2022/12/14 00:51:37;;;;;;;14.90;9.33;;;-4.40;99.90;;;;;;5172375;28;20038;-60
2022/12/14 00:54:14;;;;;;;17.87;9.23;;;-4.40;99.90;;;;;;5121938;28;20046;-60
2022/12/14 00:56:46;;;;;;;14.60;9.07;;;-4.40;99.90;;;;;;5158693;28;20041;-59
2022/12/14 00:59:18;;;;;;;13.60;7.73;;;-4.30;99.90;;;;;;5173590;28;20042;-59
2022/12/14 01:04:28;;;;;;;12.07;6.83;;;-4.30;99.90;;;;;;5131817;28;20054;-60
2022/12/14 01:07:00;;;;;;;;;;;-4.30;99.90;;;;;;5121679;28;20051;-61
2022/12/14 01:09:34;;;;;;;7.50;5.27;;;-4.30;99.90;;;;;;5151353;28;19918;-61
2022/12/14 01:12:08;;;;;;;10.90;6.43;;;-4.30;99.90;;;;;;5137892;28;20038;-60
2022/12/14 01:14:42;;;;;;;;;;;-4.30;99.90;;;;;;5154639;28;20343;-60
2022/12/14 01:17:19;;;;;;;7.78;5.55;;;-4.30;99.90;;;;;;5137521;28;19910;-60
2022/12/14 01:19:53;;;;;;;13.27;6.27;;;-4.30;99.90;;;;;;5153636;28;20045;-60
2022/12/14 01:22:27;;;;;;;10.65;6.47;;;-4.30;99.90;;;;;;5152686;28;20043;-60
2022/12/14 01:25:03;;;;;;;20.77;8.60;;;-4.30;99.90;;;;;;5137539;28;20041;-60
2022/12/14 01:27:37;;;;;;;11.40;6.60;;;-4.30;99.90;;;;;;5137596;28;20049;-60
2022/12/14 01:30:09;;;;;;;15.20;8.75;;;-4.30;99.90;;;;;;5153761;28;20031;-60
2022/12/14 01:32:46;;;;;;;14.73;8.00;;;-4.20;99.90;;;;;;5136999;28;20039;-60
2022/12/14 01:35:22;;;;;;;12.90;6.60;;;-4.20;99.90;;;;;;5153232;28;20035;-61
2022/12/14 01:37:56;;;;;;;12.07;7.60;;;-4.10;99.90;;;;;;5154687;28;20515;-60
2022/12/14 01:40:28;;;;;;;;;;;-4.10;99.90;;;;;;5146388;28;20038;-60
2022/12/14 01:42:59;;;;;;;11.90;5.93;;;-4.00;99.90;;;;;;5152876;28;19910;-60
2022/12/14 01:45:31;;;;;;;15.00;8.13;;;-3.90;99.90;;;;;;5153140;28;20053;-59
2022/12/14 01:48:13;;;;;;;11.63;7.13;;;-3.90;99.90;;;;;;5137120;28;20046;-59
2022/12/14 01:50:48;;;;;;;13.93;8.97;;;-3.80;99.90;;;;;;5122901;28;20223;-60
2022/12/14 01:53:25;;;;;;;14.10;8.03;;;-3.80;99.90;;;;;;5146228;28;20030;-60
2022/12/14 01:56:00;;;;;;;15.13;8.70;;;-3.70;99.90;;;;;;5153933;28;20030;-60
2022/12/14 01:58:37;;;;;;;18.77;8.63;;;-3.70;99.90;;;;;;5142792;28;20351;-61
2022/12/14 02:01:11;;;;;;;12.00;6.60;;;-3.70;99.90;;;;;;5119964;28;20304;-60
2022/12/14 02:03:52;;;;;;;;;;;-3.70;99.90;;;;;;5131600;28;20061;-60
2022/12/14 02:06:35;;;;;;;10.97;7.67;;;-3.70;99.90;;;;;;5111164;28;19915;-59
2022/12/14 02:09:18;;;;;;;11.60;6.53;;;-3.60;99.90;;;;;;5134136;28;20038;-60
2022/12/14 02:12:36;;;;;;;15.57;7.57;;;-3.60;99.90;;;;;;5136908;28;20319;-60
2022/12/14 02:15:22;;;;;;;13.50;8.00;;;-3.60;99.90;;;;;;5093179;29;20046;-60
2022/12/14 02:18:08;;;;;;;19.60;9.77;;;-3.50;99.90;;;;;;5114335;29;20047;-60
2022/12/14 02:21:12;;;;;;;13.63;7.43;;;-3.50;99.90;;;;;;5113230;29;20244;-60
2022/12/14 02:24:23;;;;;;;13.80;8.43;;;-3.40;99.90;;;;;;5097136;29;20047;-61
2022/12/14 02:27:32;;;;;;;17.20;7.40;;;-3.40;99.90;;;;;;5114058;29;20031;-60
2022/12/14 02:30:20;;;;;;;9.67;6.73;;;-3.30;99.90;;;;;;5056587;29;20040;-60
2022/12/14 02:33:54;;;;;;;15.07;7.83;;;-3.30;99.90;;;;;;5066616;29;20120;-59
2022/12/14 02:36:40;;;;;;;9.60;7.00;;;-3.20;99.90;;;;;;5018679;29;20049;-60
2022/12/14 02:39:40;;;;;;;19.00;9.17;;;-3.10;99.90;;;;;;5018343;29;20406;-60
2022/12/14 02:42:36;;;;;;;11.13;6.73;;;-3.10;99.90;;;;;;5033741;29;20272;-60
2022/12/14 02:45:37;;;;;;;15.37;8.60;;;-3.00;99.90;;;;;;5018313;29;20048;-60
2022/12/14 02:48:28;;;;;;;13.57;6.27;;;-2.90;99.90;;;;;;5018715;29;20138;-60
2022/12/14 02:51:09;;;;;;;10.07;6.60;;;-2.90;99.90;;;;;;5000417;29;20057;-59
2022/12/14 02:54:04;;;;;;;19.03;8.43;;;-2.80;99.90;;;;;;5043133;29;20057;-60
2022/12/14 02:56:49;;;;;;;13.20;8.33;;;-2.80;99.90;;;;;;5009437;29;20049;-61
2022/12/14 02:59:23;;;;;;;6.93;4.17;;;-2.80;99.90;;;;;;5018526;29;20053;-60
2022/12/14 03:02:04;;;;;;;9.87;6.97;;;-2.70;99.90;;;;;;5026910;29;20198;-59
2022/12/14 03:04:44;;;;;;;11.77;7.63;;;-2.70;99.90;;;;;;5018462;29;20068;-59
2022/12/14 03:07:35;;;;;;;11.47;6.77;;;-2.70;99.90;;;;;;5051158;29;20051;-60
2022/12/14 03:10:29;;;;;;;17.03;8.73;;;-2.70;99.90;;;;;;5079456;29;20050;-60
2022/12/14 03:13:27;;;;;;;20.70;10.70;;;-2.60;99.90;;;;;;5124749;29;20043;-59
2022/12/14 03:16:36;;;;;;;13.70;7.93;;;-2.60;99.90;;;;;;5119735;29;20049;-59
2022/12/14 03:19:37;;;;;;;16.23;8.83;;;-2.60;99.90;;;;;;5120375;29;20057;-60
2022/12/14 03:22:24;;;;;;;16.77;9.63;;;-2.50;99.90;;;;;;5119318;29;20047;-60
2022/12/14 03:25:09;;;;;;;16.50;8.70;;;-2.40;99.90;;;;;;5120113;29;20054;-59
2022/12/14 03:28:07;;;;;;;16.07;7.83;;;-2.40;99.90;;;;;;5119658;29;20046;-59
2022/12/14 03:30:48;;;;;;;16.87;9.43;;;-2.40;99.90;;;;;;5136033;29;20051;-59
2022/12/14 03:33:24;;;;;;;20.93;11.40;;;-2.40;99.90;;;;;;5127457;28;20031;-59
2022/12/14 03:36:24;;;;;;;13.60;7.43;;;-2.40;99.90;;;;;;5136938;28;20027;-59
2022/12/14 03:39:03;;;;;;;16.87;9.53;;;-2.30;99.90;;;;;;5151590;28;20046;-59
2022/12/14 03:42:14;;;;;;;14.50;8.83;;;-2.30;99.90;;;;;;5119889;29;20220;-60
2022/12/14 03:45:20;;;;;;;15.23;8.57;;;-2.30;99.90;;;;;;5036691;29;20057;-59
2022/12/14 03:48:09;;;;;;;13.90;9.80;;;-2.20;99.90;;;;;;5028679;29;20053;-64
2022/12/14 03:51:03;;;;;;;16.73;8.20;;;-2.30;99.90;;;;;;5021029;29;20053;-60
2022/12/14 03:53:55;;;;;;;14.13;9.13;;;-2.30;99.90;;;;;;5029931;29;20059;-60
2022/12/14 03:56:47;;;;;;;10.53;6.00;;;-2.20;99.90;;;;;;5108514;28;20038;-60
2022/12/14 04:00:05;;;;;;;13.33;8.67;;;-2.20;99.90;;;;;;5119896;29;20046;-60
2022/12/14 04:03:05;;;;;;;17.17;8.60;;;-2.30;99.90;;;;;;5141842;28;20056;-60
2022/12/14 04:06:02;;;;;;;19.33;9.97;;;-2.20;99.90;;;;;;5109364;28;20061;-59
2022/12/14 04:08:54;;;;;;;11.93;6.77;;;-2.20;99.90;;;;;;5120248;29;20023;-60
2022/12/14 04:20:37;;;;;;;18.93;9.30;;;-2.10;99.90;;;;;;5123623;29;20041;-60
2022/12/14 04:26:30;;;;;;;12.17;7.40;;;-2.10;99.90;;;;;;5103502;29;20232;-60
2022/12/14 04:32:23;;;;;;;17.63;9.63;;;-2.10;99.90;;;;;;5122460;29;20320;-60
2022/12/14 04:35:10;;;;;;;10.97;6.47;;;-2.10;99.90;;;;;;5137726;28;20066;-60
2022/12/14 04:37:49;;;;;;;13.63;9.40;;;-2.00;99.90;;;;;;5120675;29;20462;-60
2022/12/14 04:40:44;;;;;;;16.33;8.63;;;-2.00;99.90;;;;;;5154091;28;20354;-61
2022/12/14 04:43:40;;;;;;;16.92;9.25;;;-1.90;99.90;;;;;;5152298;28;20039;-60
2022/12/14 04:46:25;;;;;;;14.90;7.50;;;-1.90;99.90;;;;;;5153195;28;20038;-61
2022/12/14 04:49:08;;;;;;;16.50;8.70;;;-1.90;99.90;;;;;;5152115;28;20047;-60
2022/12/14 04:52:06;;;;;;;13.63;6.17;;;-1.90;99.90;;;;;;5088067;29;20043;-60
2022/12/14 04:54:51;;;;;;;18.27;8.80;;;-2.00;99.90;;;;;;5102783;29;20057;-59
2022/12/14 04:57:33;;;;;;;;;;;-2.00;99.90;;;;;;5130178;28;20076;-60
2022/12/14 05:00:05;;;;;;;13.20;8.23;;;-1.90;99.90;;;;;;5141292;28;20098;-59
2022/12/14 05:03:08;;;;;;;15.90;8.10;;;-1.90;99.90;;;;;;5123873;28;20047;-60
2022/12/14 05:05:55;;;;;;;14.23;8.47;;;-1.90;99.90;;;;;;5117957;28;20047;-61
2022/12/14 05:08:58;;;;;;;8.47;7.17;;;-1.90;99.90;;;;;;5137538;28;20204;-60
2022/12/14 05:11:51;;;;;;;10.90;6.93;;;-1.90;99.90;;;;;;5132613;28;20045;-60
2022/12/14 05:15:11;;;;;;;17.03;9.07;;;-1.90;99.90;;;;;;5151911;28;20047;-60
2022/12/14 05:17:45;;;;;;;13.73;8.37;;;-1.90;99.90;;;;;;5123629;29;20047;-60
2022/12/14 05:20:26;;;;;;;21.73;9.77;;;-1.80;99.90;;;;;;5140374;29;20038;-62
2022/12/14 05:23:00;;;;;;;16.40;10.40;;;-1.80;99.90;;;;;;5123526;29;20049;-60
2022/12/14 05:25:34;;;;;;;;;;;-1.70;99.90;;;;;;5125022;29;20049;-60
2022/12/14 05:28:05;;;;;;;19.60;10.57;;;-1.70;99.90;;;;;;5155276;28;19928;-60
2022/12/14 05:30:42;;;;;;;19.83;12.10;;;-1.60;99.90;;;;;;5128699;29;20037;-58
2022/12/14 05:33:23;;;;;;;17.40;10.23;;;-1.60;99.90;;;;;;5144137;28;20031;-59
2022/12/14 05:35:57;;;;;;;18.57;8.27;;;-1.60;99.90;;;;;;5118174;28;20041;-60
2022/12/14 05:38:29;;;;;;;;;;;-1.60;99.90;;;;;;5130444;29;20065;-60
2022/12/14 05:41:00;;;;;;;18.90;11.43;;;-1.70;99.90;;;;;;5150640;28;19918;-60
2022/12/14 05:43:37;;;;;;;18.27;10.60;;;-1.70;99.90;;;;;;5106068;29;20049;-60
2022/12/14 05:46:12;;;;;;;16.53;8.57;;;-1.60;99.90;;;;;;5130239;28;20047;-60
2022/12/14 05:48:55;;;;;;;8.37;5.30;;;-1.60;99.90;;;;;;5119820;29;20043;-66
2022/12/14 05:51:27;;;;;;;16.50;10.23;;;-1.60;99.90;;;;;;5137218;29;20037;-63
2022/12/14 05:54:04;;;;;;;23.63;9.57;;;-1.50;99.90;;;;;;5134497;28;20104;-60
2022/12/14 05:56:36;;;;;;;26.70;12.73;;;-1.50;99.90;;;;;;5094042;28;20039;-63
2022/12/14 05:59:14;;;;;;;18.90;10.87;;;-1.50;99.90;;;;;;5129391;28;20045;-59
2022/12/14 06:02:13;;;;;;;16.77;9.45;;;-1.50;99.90;;;;;;5128984;29;20232;-60
2022/12/14 06:04:50;;;;;;;19.07;9.27;;;-1.50;99.90;;;;;;5106374;28;20055;-60
2022/12/14 06:07:21;;;;;;;15.87;9.53;;;-1.50;99.90;;;;;;5126394;29;20043;-60
2022/12/14 06:09:58;;;;;;;21.70;10.20;;;-1.40;99.90;;;;;;5119337;28;20055;-59
2022/12/14 06:12:32;;;;;;;20.43;9.83;;;-1.50;99.90;;;;;;5119034;29;20055;-59
2022/12/14 06:15:09;;;;;;;15.90;9.38;;;-1.40;99.90;;;;;;5097589;29;20060;-60
2022/12/14 06:17:52;;;;;;;14.17;8.13;;;-1.40;99.90;;;;;;5143940;28;20175;-59
2022/12/14 06:20:26;;;;;;;13.07;7.97;;;-1.40;99.90;;;;;;5097212;29;20040;-59
2022/12/14 06:23:04;;;;;;;6.67;5.97;;;-1.50;99.90;;;;;;5113834;29;20047;-60
2022/12/14 06:25:36;;;;;;;21.50;10.55;;;-1.40;99.90;;;;;;5114004;29;20046;-60
2022/12/14 06:28:07;;;;;;;22.88;9.50;;;-1.40;99.90;;;;;;5116357;29;20047;-59
2022/12/14 06:30:38;;;;;;;16.48;10.25;;;-1.40;99.90;;;;;;5133548;29;20041;-59
2022/12/14 06:33:14;;;;;;;20.70;8.57;;;-1.40;99.90;;;;;;5133807;28;20057;-59
2022/12/14 06:35:48;;;;;;;10.90;6.17;;;-1.40;99.90;;;;;;5115808;29;20057;-60
2022/12/14 06:38:23;;;;;;;20.08;10.85;;;-1.40;99.90;;;;;;5133313;28;20434;-59
2022/12/14 06:40:59;;;;;;;13.90;7.32;;;-1.40;99.90;;;;;;5104342;29;20033;-59
2022/12/14 06:43:35;;;;;;;20.93;10.83;;;-1.40;99.90;;;;;;5119846;29;20043;-59
2022/12/14 06:46:09;;;;;;;17.30;9.35;;;-1.30;99.90;;;;;;5103860;29;20045;-59
2022/12/14 06:48:54;;;;;;;22.83;10.07;;;-1.30;99.90;;;;;;5119827;29;20073;-59
2022/12/14 06:51:31;;;;;;;17.27;8.73;;;-1.30;99.90;;;;;;5129548;29;20047;-60
2022/12/14 06:54:02;;;;;;;16.77;9.83;;;-1.30;99.90;;;;;;5120231;29;20039;-60
2022/12/14 06:56:39;;;;;;;12.63;8.97;;;-1.40;99.90;;;;;;5134721;28;20043;-60
2022/12/14 06:59:14;;;;;;;17.20;9.52;;;-1.40;99.90;;;;;;5119585;29;20047;-60
2022/12/14 07:01:45;;;;;;;20.00;9.20;;;-1.40;99.90;;;;;;5104772;29;20047;-69
2022/12/14 07:04:24;;;;;;;9.15;6.25;;;-1.30;99.90;;;;;;5109251;28;20317;-60
2022/12/14 07:06:57;;;;;;;14.05;7.93;;;-1.40;99.90;;;;;;5139808;28;20456;-60
2022/12/14 07:09:33;;;;;;;15.63;9.00;;;-1.40;99.90;;;;;;5124064;29;20316;-60
2022/12/14 07:12:08;;;;;;;16.83;9.50;;;-1.40;99.90;;;;;;5133215;28;20197;-60
2022/12/14 07:14:45;;;;;;;12.90;7.17;;;-1.40;99.90;;;;;;5124028;29;20039;-59
2022/12/14 07:17:22;;;;;;;29.33;8.67;;;-1.30;99.90;;;;;;5133011;28;20043;-60
2022/12/14 07:19:58;;;;;;;10.98;7.03;;;-1.40;99.90;;;;;;5117335;29;20036;-60
2022/12/14 07:22:39;;;;;;;22.77;8.05;;;-1.40;99.90;;;;;;5118979;29;20077;-60
2022/12/14 07:25:13;;;;;;;16.33;8.60;;;-1.40;99.90;;;;;;5099230;28;20054;-60
2022/12/14 07:27:49;;;;;;;15.85;9.25;;;-1.40;99.90;;;;;;5136297;29;20030;-60
2022/12/14 07:30:23;;;;;;;10.20;6.30;;;-1.40;99.90;;;;;;5114838;29;20053;-60
2022/12/14 07:32:56;;;;;;;14.70;8.77;;;-1.40;99.90;;;;;;5131570;28;20047;-60
2022/12/14 07:35:31;;;;;;;16.15;8.65;;;-1.40;99.90;;;;;;5134980;28;20043;-60
2022/12/14 07:38:02;;;;;;;11.30;6.35;;;-1.30;99.90;;;;;;5135340;29;20043;-60
2022/12/14 07:40:34;;;;;;;14.57;7.00;;;-1.40;99.90;;;;;;5138360;28;20019;-61
2022/12/14 07:43:08;;;;;;;10.03;5.13;;;-1.40;99.90;;;;;;5153744;28;20037;-60
2022/12/14 07:45:44;;;;;;;15.70;9.15;;;-1.40;99.90;;;;;;5132579;29;20058;-59
2022/12/14 07:48:18;;;;;;;12.77;6.53;;;-1.30;99.90;;;;;;5135416;29;20039;-60
2022/12/14 07:50:49;;;;;;;17.17;9.40;;;-1.40;99.90;;;;;;5117670;29;20501;-60
2022/12/14 07:53:21;;;;;;;17.50;9.27;;;-1.30;99.90;;;;;;5107281;29;20051;-60
2022/12/14 07:55:55;;;;;;;10.90;7.47;;;-1.20;99.90;;;;;;5127178;29;20042;-60
2022/12/14 07:58:26;;;;;;;19.83;10.98;;;-1.30;99.90;;;;;;5133872;28;20049;-60
2022/12/14 08:01:17;;;;;;;19.00;9.13;;;-1.30;99.90;;;;;;5135648;28;20220;-60
2022/12/14 08:04:01;;;;;;;14.70;7.60;;;-1.30;99.90;;;;;;5135196;28;20039;-60
2022/12/14 08:06:37;;;;;;;15.25;8.32;;;-1.20;99.90;;;;;;5119706;28;20062;-61
2022/12/14 08:09:10;;;;;;;18.40;9.83;;;-1.20;99.90;;;;;;5102730;29;20336;-60
2022/12/14 08:11:49;;;;;;;13.60;8.93;;;-1.10;99.90;;;;;;5114884;29;20035;-65
2022/12/14 08:14:21;;;;;;;11.83;8.17;;;-1.10;99.90;;;;;;5090114;29;20057;-61
2022/12/14 08:16:53;;;;;;;19.23;10.77;;;-1.10;99.90;;;;;;5112287;29;20031;-61
2022/12/14 08:19:26;;;;;;;15.23;8.50;;;-1.00;99.90;;;;;;5133945;29;20041;-60
2022/12/14 08:22:03;;;;;;;25.08;12.43;;;-1.10;99.90;;;;;;5116843;29;20045;-60
2022/12/14 08:24:34;;;;;;;15.87;8.13;;;-1.00;99.90;;;;;;5117653;29;20240;-60
2022/12/14 08:27:14;;;;;;;15.90;9.17;;;-1.00;99.90;;;;;;5102571;29;20448;-60
2022/12/14 08:29:45;;;;;;;14.20;9.15;;;-0.90;99.90;;;;;;5134226;28;20043;-59
2022/12/14 08:32:19;;;;;;;12.50;8.17;;;-0.90;99.90;;;;;;5132912;29;20319;-60
2022/12/14 08:34:50;;;;;;;23.40;9.20;;;-0.90;99.90;;;;;;5116854;28;20056;-60
2022/12/14 08:37:22;;;;;;;16.85;8.75;;;-0.90;99.90;;;;;;5134211;28;20045;-60
2022/12/14 08:39:54;;;;;;;12.17;7.30;;;-0.80;99.90;;;;;;5152661;28;20034;-59
2022/12/14 08:42:30;;;;;;;16.33;8.90;;;-0.90;99.90;;;;;;5138663;28;20051;-60
2022/12/14 08:45:03;;;;;;;21.40;10.27;;;-0.80;99.90;;;;;;5144017;28;20027;-60
2022/12/14 08:47:34;;;;;;;13.30;7.10;;;-0.80;99.90;;;;;;5129147;28;20271;-60
2022/12/14 08:50:06;;;;;;;22.65;8.68;;;-0.80;99.90;;;;;;5132085;28;20041;-59
2022/12/14 08:52:40;;;;;;;19.58;10.32;;;-0.80;99.90;;;;;;5115273;29;20189;-59
2022/12/14 08:55:15;;;;;;;21.20;10.10;;;-0.80;99.90;;;;;;5115114;29;20216;-60
2022/12/14 08:57:47;;;;;;;14.40;8.00;;;-0.70;99.90;;;;;;5132273;28;20031;-59
2022/12/14 09:00:21;;;;;;;17.20;9.88;;;-0.70;99.90;;;;;;5116177;29;20035;-58
2022/12/14 09:02:53;;;;;;;15.98;10.27;;;-0.70;99.90;;;;;;5118492;28;20053;-64
2022/12/14 09:05:27;;;;;;;18.70;11.20;;;-0.70;99.90;;;;;;5108130;28;20061;-59
2022/12/14 09:08:08;;;;;;;15.65;7.47;;;-0.60;99.90;;;;;;5098525;29;20054;-59
2022/12/14 09:10:40;;;;;;;18.17;8.70;;;-0.60;99.90;;;;;;5130770;29;20379;-59
2022/12/14 09:13:12;;;;;;;27.48;12.32;;;-0.60;99.90;;;;;;5132006;29;20041;-60
2022/12/14 09:15:43;;;;;;;20.65;11.30;;;-0.50;99.90;;;;;;5115792;29;20027;-58
2022/12/14 09:18:18;;;;;;;16.48;10.57;;;-0.50;99.90;;;;;;5133007;29;20035;-59
2022/12/14 09:20:53;;;;;;;22.45;11.77;;;-0.40;99.90;;;;;;5133333;29;20027;-59
2022/12/14 09:23:29;;;;;;;20.53;10.83;;;-0.40;99.90;;;;;;5129531;28;20051;-59
2022/12/14 09:26:07;;;;;;;19.73;10.25;;;-0.40;99.90;;;;;;5098078;29;20039;-60
2022/12/14 09:28:44;;;;;;;14.57;7.90;;;-0.30;99.90;;;;;;5132499;28;20239;-60
2022/12/14 09:31:19;;;;;;;18.58;8.70;;;-0.40;99.90;;;;;;5091149;29;20061;-60
2022/12/14 09:33:51;;;;;;;19.17;10.63;;;-0.50;99.90;;;;;;5115794;29;20041;-59
2022/12/14 09:36:30;;;;;;;16.90;9.35;;;-0.40;99.90;;;;;;5115257;29;20033;-59
2022/12/14 09:39:05;;;;;;;19.35;10.18;;;-0.40;99.90;;;;;;5116100;29;20047;-60
2022/12/14 09:42:03;;;;;;;11.55;6.82;;;-0.30;99.90;;;;;;5133258;28;20037;-60
2022/12/14 09:45:17;;;;;;;17.48;10.65;;;-0.40;99.90;;;;;;5110608;28;20053;-60
2022/12/14 09:48:17;;;;;;;17.08;8.65;;;-0.30;99.90;;;;;;5094763;29;20051;-60
2022/12/14 09:50:54;;;;;;;14.18;8.13;;;-0.30;99.90;;;;;;5129148;29;20038;-59
2022/12/14 09:54:18;;;;;;;23.38;11.80;;;-0.30;99.90;;;;;;5115104;29;20063;-59
2022/12/14 09:57:48;;;;;;;16.80;8.90;;;-0.20;99.90;;;;;;5115098;28;20355;-59
2022/12/14 10:01:24;;;;;;;11.50;6.38;;;-0.20;99.90;;;;;;5115448;29;20352;-59
2022/12/14 10:05:10;;;;;;;12.45;7.35;;;-0.20;99.90;;;;;;5130208;28;20236;-58
2022/12/14 10:08:06;;;;;;;20.60;9.88;;;-0.10;99.90;;;;;;5133393;28;20055;-60
2022/12/14 10:11:03;;;;;;;19.98;9.82;;;-0.20;99.90;;;;;;5126527;28;20051;-59
2022/12/14 10:13:55;;;;;;;20.80;10.25;;;-0.10;99.90;;;;;;5105475;29;20042;-59
2022/12/14 10:16:47;;;;;;;18.35;11.23;;;0.00;99.90;;;;;;5114022;29;20039;-59
2022/12/14 10:19:45;;;;;;;18.88;10.88;;;0.00;99.90;;;;;;5132121;28;20342;-60
2022/12/14 10:22:24;;;;;;;15.90;9.18;;;0.00;99.90;;;;;;5082381;29;20053;-59
2022/12/14 10:25:14;;;;;;;14.95;9.25;;;-0.10;99.90;;;;;;5098876;29;20046;-59
2022/12/14 10:28:18;;;;;;;20.75;11.98;;;-0.10;99.90;;;;;;5115045;29;20051;-59
2022/12/14 10:30:53;;;;;;;20.20;8.88;;;0.00;99.90;;;;;;5132093;28;20034;-59
2022/12/14 10:33:30;;;;;;;16.88;8.88;;;0.00;99.90;;;;;;5114400;29;20347;-59
2022/12/14 10:36:37;;;;;;;15.13;8.82;;;0.00;99.90;;;;;;5114845;28;20048;-60
2022/12/14 10:39:29;;;;;;;20.80;10.73;;;-0.10;99.90;;;;;;5130584;28;20032;-59
2022/12/14 10:42:20;;;;;;;20.65;11.00;;;0.00;99.90;;;;;;5146426;28;20316;-60
2022/12/14 10:45:46;;;;;;;14.90;8.32;;;0.00;99.90;;;;;;5130939;29;20027;-60
2022/12/14 10:48:27;;;;;;;14.00;8.50;;;0.10;99.90;;;;;;5122521;28;20058;-60
2022/12/14 10:51:12;;;;;;;15.07;10.07;;;0.10;99.90;;;;;;5131775;29;20039;-60
2022/12/14 10:53:53;;;;;;;20.35;11.20;;;0.20;99.90;;;;;;5115348;29;20047;-61
2022/12/14 10:56:32;;;;;;;16.50;9.18;;;0.30;99.90;;;;;;5129358;28;20054;-60
2022/12/14 10:59:16;;;;;;;10.98;6.30;;;0.20;99.90;;;;;;5114971;29;20045;-61
2022/12/14 11:02:03;;;;;;;14.75;9.77;;;0.20;99.90;;;;;;5139619;28;20316;-60
2022/12/14 11:05:02;;;;;;;15.43;9.27;;;0.20;99.90;;;;;;5107362;28;20067;-59
2022/12/14 11:07:42;;;;;;;14.13;9.00;;;0.20;99.90;;;;;;5130233;28;20051;-61
2022/12/14 11:10:39;;;;;;;16.17;8.15;;;0.10;99.90;;;;;;5120551;28;20042;-59
2022/12/14 11:13:18;;;;;;;15.75;8.23;;;0.10;99.90;;;;;;5124954;29;20045;-59
2022/12/14 11:15:54;;;;;;;20.70;11.35;;;0.10;99.90;;;;;;5121704;29;20231;-61
2022/12/14 11:18:32;;;;;;;23.42;11.77;;;0.10;99.90;;;;;;5122474;29;20051;-59
2022/12/14 11:21:09;;;;;;;20.42;11.60;;;0.30;99.90;;;;;;5117190;29;20073;-59
2022/12/14 11:23:48;;;;;;;17.35;8.23;;;0.40;99.90;;;;;;5099558;29;20316;-59
2022/12/14 11:26:47;;;;;;;25.50;11.63;;;0.30;99.90;;;;;;5116661;28;20054;-59
2022/12/14 11:29:31;;;;;;;13.70;9.43;;;0.30;99.90;;;;;;5116962;29;20038;-60
2022/12/14 11:32:04;;;;;;;14.70;9.32;;;0.40;99.90;;;;;;5103641;29;20227;-60
2022/12/14 11:35:02;;;;;;;20.90;10.60;;;0.30;99.90;;;;;;5118482;28;20057;-60
2022/12/14 11:37:38;;;;;;;21.77;11.23;;;0.30;99.90;;;;;;5143924;28;20041;-61
2022/12/14 11:40:39;;;;;;;21.05;10.27;;;0.30;99.90;;;;;;5135810;28;20308;-60
2022/12/14 11:43:28;;;;;;;16.10;9.57;;;0.40;99.90;;;;;;5111093;29;20348;-64
2022/12/14 11:46:02;;;;;;;23.10;11.00;;;0.40;99.90;;;;;;5118821;29;20051;-61
2022/12/14 11:48:47;;;;;;;18.55;10.43;;;0.50;99.90;;;;;;5133653;29;20053;-61
2022/12/14 11:51:22;;;;;;;22.40;11.65;;;0.50;99.90;;;;;;5121150;29;20037;-60
2022/12/14 11:54:02;;;;;;;19.23;10.57;;;0.50;99.90;;;;;;5117753;29;20031;-60
2022/12/14 11:56:36;;;;;;;16.45;10.02;;;0.60;99.90;;;;;;5101344;28;20062;-61
2022/12/14 11:59:16;;;;;;;17.63;8.30;;;0.60;99.90;;;;;;5118352;29;20042;-60
2022/12/14 12:01:54;;;;;;;14.95;9.10;;;0.50;99.90;;;;;;5124207;28;20027;-60
2022/12/14 12:04:26;;;;;;;18.02;8.02;;;0.50;99.90;;;;;;5120157;28;20051;-60
2022/12/14 12:07:00;;;;;;;18.98;11.15;;;0.60;99.90;;;;;;5120399;29;20038;-60
2022/12/14 12:09:33;;;;;;;26.70;12.27;;;0.70;99.90;;;;;;5116068;28;20045;-61
2022/12/14 12:12:04;;;;;;;19.48;11.02;;;0.80;99.90;;;;;;5118843;29;20035;-60
2022/12/14 12:14:38;;;;;;;21.00;11.75;;;0.80;99.90;;;;;;5117276;29;20342;-61
2022/12/14 12:17:35;;;;;;;19.17;9.90;;;0.90;99.90;;;;;;5100478;29;20049;-61
2022/12/14 12:20:36;;;;;;;19.63;10.77;;;0.70;99.90;;;;;;5114351;29;20393;-61
2022/12/14 12:24:04;;;;;;;20.02;9.95;;;0.60;99.90;;;;;;5118424;29;20027;-62
2022/12/14 12:26:51;;;;;;;11.32;7.85;;;0.60;99.90;;;;;;5100101;28;20057;-61
2022/12/14 12:29:36;;;;;;;16.50;10.10;;;0.50;99.90;;;;;;5116787;29;20027;-61
2022/12/14 12:32:34;;;;;;;19.50;11.02;;;0.40;99.90;;;;;;5096984;29;20034;-60
2022/12/14 12:35:16;;;;;;;17.40;11.07;;;0.50;99.90;;;;;;5101327;29;20039;-60
2022/12/14 12:38:03;;;;;;;12.23;7.75;;;0.50;99.90;;;;;;5107207;28;20035;-61
2022/12/14 12:41:08;;;;;;;20.27;12.30;;;0.60;99.90;;;;;;5095976;29;20043;-61
2022/12/14 12:43:53;;;;;;;18.77;9.93;;;0.60;99.90;;;;;;5103036;29;20039;-60
2022/12/14 12:46:30;;;;;;;;;;;0.50;99.90;;;;;;5135400;28;20052;-61
2022/12/14 12:49:14;;;;;;;15.85;9.07;;;0.50;99.90;;;;;;5149824;28;19918;-60
2022/12/14 12:51:57;;;;;;;14.38;8.77;;;0.40;99.90;;;;;;5136052;28;20051;-60
2022/12/14 12:54:36;;;;;;;13.98;8.93;;;0.30;99.90;;;;;;5117303;29;20050;-60
2022/12/14 12:57:17;;;;;;;21.05;10.30;;;0.40;99.90;;;;;;5100300;29;20033;-60
2022/12/14 12:59:55;;;;;;;16.77;6.88;;;0.40;99.90;;;;;;5125667;28;20478;-60
2022/12/14 13:02:44;;;;;;;18.33;9.10;;;0.40;99.90;;;;;;5114638;29;20035;-60
2022/12/14 13:05:26;;;;;;;16.15;9.25;;;0.40;99.90;;;;;;5114438;28;20054;-62
2022/12/14 13:08:06;;;;;;;21.05;10.90;;;0.30;99.90;;;;;;5121154;29;20035;-61
2022/12/14 13:10:50;;;;;;;18.45;9.63;;;0.50;99.90;;;;;;5116404;29;20046;-61
2022/12/14 13:13:29;;;;;;;18.27;9.75;;;0.40;99.90;;;;;;5109480;29;20205;-61
2022/12/14 13:16:40;;;;;;;21.40;11.63;;;0.40;99.90;;;;;;5100281;29;20057;-60
2022/12/14 13:19:37;;;;;;;10.85;7.35;;;0.40;99.90;;;;;;5054743;29;20041;-61
2022/12/14 13:22:27;;;;;;;18.23;9.20;;;0.20;99.90;;;;;;5057266;29;20044;-61
2022/12/14 13:25:15;;;;;;;12.52;8.18;;;0.20;99.90;;;;;;5089918;29;20044;-61
2022/12/14 13:28:14;;;;;;;21.30;11.20;;;0.20;99.90;;;;;;5090728;29;20032;-61
2022/12/14 13:31:02;;;;;;;18.77;11.15;;;0.20;99.90;;;;;;5075109;29;20040;-61
2022/12/14 13:33:50;;;;;;;15.30;8.93;;;0.20;99.90;;;;;;5091253;29;20024;-64
2022/12/14 13:36:26;;;;;;;20.13;11.80;;;0.20;99.90;;;;;;5091648;29;20032;-61
2022/12/14 13:39:31;;;;;;;20.00;11.38;;;0.20;99.90;;;;;;5088111;29;20048;-60
2022/12/14 13:42:24;;;;;;;13.90;8.63;;;0.30;99.90;;;;;;5074514;29;20141;-62
2022/12/14 13:45:04;;;;;;;16.90;8.35;;;0.30;99.90;;;;;;5072124;29;20046;-62
2022/12/14 13:47:44;;;;;;;23.58;12.57;;;0.30;99.90;;;;;;5072277;29;20328;-62
2022/12/14 13:50:31;;;;;;;19.27;11.25;;;0.30;99.90;;;;;;5081806;29;20474;-61
2022/12/14 13:53:20;;;;;;;25.92;12.65;;;0.30;99.90;;;;;;5140442;28;20248;-62
2022/12/14 13:55:58;;;;;;;18.98;11.73;;;0.30;99.90;;;;;;5109492;29;20054;-61
2022/12/14 13:58:49;;;;;;;16.95;9.60;;;0.30;99.90;;;;;;5113911;29;20035;-62
2022/12/14 14:01:20;;;;;;;21.17;12.40;;;0.30;99.90;;;;;;5114967;28;20060;-62
2022/12/14 14:03:55;;;;;;;18.05;10.20;;;0.20;99.90;;;;;;5117616;28;20047;-62
2022/12/14 14:06:30;;;;;;;13.35;8.77;;;0.30;99.90;;;;;;5102072;29;20063;-62
2022/12/14 14:09:27;;;;;;;26.70;12.52;;;0.20;99.90;;;;;;5123901;28;20038;-62
2022/12/14 14:12:17;;;;;;;20.75;11.68;;;0.20;99.90;;;;;;5102024;29;20042;-62
2022/12/14 14:15:07;;;;;;;13.88;9.02;;;0.20;99.90;;;;;;5126401;29;20041;-61
2022/12/14 14:17:49;;;;;;;20.25;11.05;;;0.10;99.90;;;;;;5124045;29;20048;-61
2022/12/14 14:20:54;;;;;;;21.27;10.57;;;0.20;99.90;;;;;;5128509;29;20041;-62